Jun Ma 2 — BSPI — position and weather

sailwx.info

Track history (hours):
 
Tides and Currents Weather Stations Pressure Air Temp Water Temp Dewpoint Dewpoint Depression Visibility Wind Speed Wind Dir Waves Ship Positions

Jun Ma 2

Last reported at 2018-Feb-18 03:00 UTC. Time now 2018-Feb-18 03:26 UTC.
Position N 05°37' W 000°00'.

Length 87 m.

MMSI: 412052630.

Date/timePositionNaut miles runAvg speedWind from/ knotsBaromVisibWave heightAir tempDewpointWater temp
2018-Feb-18 03:00N 05°37' W 000°00'0 0.0
2018-Feb-18 02:30N 05°37' W 000°00'0 0.0
2018-Feb-18 02:00N 05°37' W 000°00'0 0.4
2018-Feb-18 01:30N 05°37' W 000°00'510.5
2018-Feb-18 01:00N 05°37' E 000°05'4 8.4
2018-Feb-18 00:30N 05°39' E 000°09'1 1.9
2018-Feb-18 00:00N 05°40' E 000°10'0 0.2
2018-Feb-17 23:30N 05°40' E 000°10'1 2.0
2018-Feb-17 23:00N 05°39' E 000°09'1 2.0
2018-Feb-17 22:30N 05°39' E 000°08'510.6
2018-Feb-17 22:00N 05°37' E 000°03'3 6.4
2018-Feb-17 21:30N 05°37' W 000°00'0 0.0
2018-Feb-17 21:00N 05°37' W 000°00'0 0.0
2018-Feb-17 20:30N 05°37' W 000°00'0 0.0
2018-Feb-17 20:00N 05°37' W 000°00'0 0.0
2018-Feb-17 19:30N 05°37' W 000°00'4 7.4
2018-Feb-17 19:00N 05°37' E 000°03'5 9.5
2018-Feb-17 18:30N 05°39' E 000°08'1 2.0
2018-Feb-17 18:00N 05°39' E 000°09'0 0.2
2018-Feb-17 17:30N 05°39' E 000°09'1 1.6
2018-Feb-17 17:00N 05°39' E 000°08'1 1.6
2018-Feb-17 16:30N 05°39' E 000°09'1 1.2
2018-Feb-17 15:59N 05°39' E 000°08'1 1.8
2018-Feb-17 15:27N 05°39' E 000°07'4 8.7
2018-Feb-17 15:00N 05°37' E 000°04'4 8.5
2018-Feb-17 14:30N 05°37' W 000°00'0 0.0
2018-Feb-17 14:00N 05°37' W 000°00'0 0.0
2018-Feb-17 13:30N 05°37' W 000°00'0 0.0
2018-Feb-17 13:00N 05°37' W 000°00'0 0.0
2018-Feb-17 12:30N 05°37' W 000°00'2 3.6
2018-Feb-17 12:00N 05°37' E 000°01'5 9.7
2018-Feb-17 11:30N 05°38' E 000°06'4 8.4
2018-Feb-17 11:00N 05°40' E 000°10'0 0.8
2018-Feb-17 10:30N 05°39' E 000°10'1 2.1
2018-Feb-17 10:00N 05°39' E 000°09'1 2.0
2018-Feb-17 09:29N 05°39' E 000°08'1 1.4
2018-Feb-17 09:00N 05°39' E 000°07'4 7.6
2018-Feb-17 08:30N 05°37' E 000°04'2 4.4
2018-Feb-17 08:00N 05°37' E 000°01'1 1.8
2018-Feb-17 07:30N 05°37' E 000°01'1 1.5
2018-Feb-17 06:58N 05°37' W 000°00'0 0.0
2018-Feb-17 06:28N 05°37' W 000°00'0 0.0
2018-Feb-17 05:58N 05°37' W 000°00'0 0.0
2018-Feb-17 05:28N 05°37' W 000°00'0 0.0
2018-Feb-17 04:58N 05°37' W 000°00'0 0.0
2018-Feb-17 04:28N 05°37' W 000°00'0 0.0
2018-Feb-17 03:58N 05°37' W 000°00'0 0.0
2018-Feb-17 03:28N 05°37' W 000°00'0 0.0
2018-Feb-17 02:58N 05°37' W 000°00'0 0.0
2018-Feb-17 02:28N 05°37' W 000°00'0 0.0
2018-Feb-17 01:58N 05°37' W 000°00'0 0.0
2018-Feb-17 01:28N 05°37' W 000°00'0 0.0
2018-Feb-17 00:58N 05°37' W 000°00'0 0.0
2018-Feb-17 00:28N 05°37' W 000°00'0 0.0
2018-Feb-16 23:58N 05°37' W 000°00'0 0.0
2018-Feb-16 23:28N 05°37' W 000°00'0 0.0
2018-Feb-16 22:58N 05°37' W 000°00'0 0.0
2018-Feb-16 22:28N 05°37' W 000°00'0 0.0
2018-Feb-16 21:58N 05°37' W 000°00'0 0.0
2018-Feb-16 21:28N 05°37' W 000°00'0 0.0
2018-Feb-16 20:58N 05°37' W 000°00'0 0.0
2018-Feb-16 20:28N 05°37' W 000°00'0 0.0
2018-Feb-16 19:58N 05°37' W 000°00'0 0.0
2018-Feb-16 19:25N 05°37' W 000°00'0 0.0
2018-Feb-16 18:58N 05°37' W 000°00'0 0.3
2018-Feb-16 18:30N 05°37' W 000°00'0 0.0
2018-Feb-16 18:00N 05°37' W 000°00'0 0.0
2018-Feb-16 17:30N 05°37' W 000°00'0 0.0
2018-Feb-16 17:00N 05°37' W 000°00'0 0.2
2018-Feb-16 16:30N 05°37' W 000°00'5 9.8
2018-Feb-16 16:00N 05°37' E 000°05'5 9.5
2018-Feb-16 15:30N 05°39' E 000°09'1 2.2
2018-Feb-16 15:00N 05°40' E 000°10'1 1.7
2018-Feb-16 14:30N 05°39' E 000°09'1 2.4
2018-Feb-16 13:59N 05°39' E 000°08'2 4.5
2018-Feb-16 13:30N 05°38' E 000°06'612.5
2018-Feb-16 13:01N 05°37' E 000°00'1 1.2
2018-Feb-16 12:31N 05°37' W 000°00'0 0.0
2018-Feb-16 12:00N 05°37' W 000°00'0 0.0
2018-Feb-16 11:30N 05°37' W 000°00'0 0.0
2018-Feb-16 11:00N 05°37' W 000°00'0 0.0
2018-Feb-16 10:30N 05°37' W 000°00'0 0.0
2018-Feb-16 10:00N 05°37' W 000°00'0 0.0
2018-Feb-16 09:30N 05°37' W 000°00'0 0.0
2018-Feb-16 09:00N 05°37' W 000°00'0 0.0
2018-Feb-16 08:30N 05°37' W 000°00'0 0.0
2018-Feb-16 08:00N 05°37' W 000°00'0 0.0
2018-Feb-16 07:30N 05°37' W 000°00'0 0.0
2018-Feb-16 07:00N 05°37' W 000°00'0 0.0
2018-Feb-16 06:30N 05°37' W 000°00'0 0.0
2018-Feb-16 06:00N 05°37' W 000°00'0 0.0
2018-Feb-16 05:30N 05°37' W 000°00'0 0.0
2018-Feb-16 04:54N 05°37' W 000°00'0 0.0
2018-Feb-16 04:30N 05°37' W 000°00'0 0.0
2018-Feb-16 04:00N 05°37' W 000°00'0 0.0
2018-Feb-16 03:30N 05°37' W 000°00'0 0.0
2018-Feb-16 03:00N 05°37' W 000°00'0 0.0
2018-Feb-16 02:30N 05°37' W 000°00'0 0.0
2018-Feb-16 02:00N 05°37' W 000°00'0 0.0
2018-Feb-16 01:30N 05°37' W 000°00'0 0.0
2018-Feb-16 01:00N 05°37' W 000°00'0 0.0
2018-Feb-16 00:30N 05°37' W 000°00'0 0.0
2018-Feb-16 00:00N 05°37' W 000°00'0 0.0
2018-Feb-15 23:30N 05°37' W 000°00'0 0.0
2018-Feb-15 23:00N 05°37' W 000°00'0 0.0
2018-Feb-15 22:30N 05°37' W 000°00'0 0.0
2018-Feb-15 22:00N 05°37' W 000°00'0 0.0
2018-Feb-15 21:30N 05°37' W 000°00'0 0.0
2018-Feb-15 21:00N 05°37' W 000°00'0 0.0
2018-Feb-15 20:30N 05°37' W 000°00'0 0.0
2018-Feb-15 20:00N 05°37' W 000°00'0 0.0
2018-Feb-15 19:30N 05°37' W 000°00'0 0.0
2018-Feb-15 19:00N 05°37' W 000°00'0 0.0
2018-Feb-15 18:30N 05°37' W 000°00'0 0.0
2018-Feb-15 18:00N 05°37' W 000°00'0 0.0
2018-Feb-15 17:30N 05°37' W 000°00'0 0.0
2018-Feb-15 17:00N 05°37' W 000°00'0 0.0
2018-Feb-15 16:30N 05°37' W 000°00'0 0.0
2018-Feb-15 16:00N 05°37' W 000°00'0 0.0
2018-Feb-15 15:30N 05°37' W 000°00'0 0.0
2018-Feb-15 15:00N 05°37' W 000°00'0 0.0
2018-Feb-15 14:30N 05°37' W 000°00'0 0.0
2018-Feb-15 14:00N 05°37' W 000°00'0 0.0
2018-Feb-15 13:30N 05°37' W 000°00'0 0.0
2018-Feb-15 13:00N 05°37' W 000°00'0 0.0
2018-Feb-15 12:30N 05°37' W 000°00'0 0.0
2018-Feb-15 12:00N 05°37' W 000°00'0 0.0
2018-Feb-15 11:30N 05°37' W 000°00'0 0.0
2018-Feb-15 11:00N 05°37' W 000°00'0 0.0
2018-Feb-15 10:30N 05°37' W 000°00'0 0.0
2018-Feb-15 10:00N 05°37' W 000°00'0 0.2
2018-Feb-15 09:30N 05°37' W 000°00'0 0.0
2018-Feb-15 09:01N 05°37' W 000°00'0 0.0
2018-Feb-15 08:29N 05°37' W 000°00'0 0.0
2018-Feb-15 08:00N 05°37' W 000°00'0 0.0
2018-Feb-15 07:31N 05°37' W 000°00'0 0.1
2018-Feb-15 07:01N 05°37' W 000°00'4 8.4
2018-Feb-15 06:31N 05°37' E 000°04'510.2
2018-Feb-15 06:00N 05°39' E 000°09'1 2.1
2018-Feb-15 05:30N 05°39' E 000°10'0 0.6
2018-Feb-15 05:00N 05°40' E 000°09'1 1.7
2018-Feb-15 04:29N 05°39' E 000°09'1 1.7
2018-Feb-15 04:00N 05°39' E 000°08'611.8
2018-Feb-15 03:30N 05°37' E 000°02'3 5.4
2018-Feb-15 03:01N 05°37' W 000°00'0 0.0
2018-Feb-15 02:30N 05°37' W 000°00'0 0.0
2018-Feb-15 02:00N 05°37' W 000°00'0 0.0
2018-Feb-15 01:31N 05°37' W 000°00'0 0.0
2018-Feb-15 01:01N 05°37' W 000°00'0 0.1
2018-Feb-15 00:30N 05°37' W 000°00'5 9.3
2018-Feb-15 00:00N 05°37' E 000°04'4 7.7
2018-Feb-14 23:30N 05°39' E 000°08'1 1.8
2018-Feb-14 23:01N 05°39' E 000°09'1 1.7
2018-Feb-14 22:30N 05°40' E 000°09'1 1.9
2018-Feb-14 22:00N 05°39' E 000°09'1 1.6
2018-Feb-14 21:31N 05°39' E 000°08'612.4
2018-Feb-14 21:01N 05°37' E 000°02'2 4.6
2018-Feb-14 20:31N 05°37' W 000°00'0 0.0
2018-Feb-14 20:01N 05°37' W 000°00'0 0.0
2018-Feb-14 19:30N 05°37' W 000°00'0 0.0
2018-Feb-14 19:00N 05°37' W 000°00'2 4.1
2018-Feb-14 18:31N 05°37' E 000°02'611.4
2018-Feb-14 18:00N 05°38' E 000°07'3 5.2
2018-Feb-14 17:31N 05°39' E 000°10'0 0.3
2018-Feb-14 17:01N 05°39' E 000°10'1 1.9
2018-Feb-14 16:30N 05°39' E 000°09'1 1.9
2018-Feb-14 15:59N 05°39' E 000°08'4 7.9
2018-Feb-14 15:30N 05°37' E 000°04'5 9.5
2018-Feb-14 15:00N 05°37' W 000°00'0 0.0
2018-Feb-14 14:30N 05°37' W 000°00'0 0.0
2018-Feb-14 14:00N 05°37' W 000°00'0 0.0
2018-Feb-14 13:30N 05°37' W 000°00'0 0.0
2018-Feb-14 13:00N 05°37' W 000°00'0 0.0
2018-Feb-14 12:30N 05°37' W 000°00'3 5.5
2018-Feb-14 12:00N 05°37' E 000°02'611.8
2018-Feb-14 11:30N 05°39' E 000°08'1 2.7
2018-Feb-14 11:00N 05°39' E 000°09'1 1.7
2018-Feb-14 10:30N 05°40' E 000°10'1 2.1
2018-Feb-14 09:59N 05°39' E 000°09'1 2.0
2018-Feb-14 09:30N 05°39' E 000°08'4 8.7
2018-Feb-14 09:00N 05°37' E 000°04'4 8.9
2018-Feb-14 08:30N 05°37' W 000°00'0 0.0
2018-Feb-14 08:00N 05°37' W 000°00'0 0.0
2018-Feb-14 07:30N 05°37' W 000°00'0 0.0
2018-Feb-14 07:00N 05°37' W 000°00'0 0.0
2018-Feb-14 06:30N 05°37' W 000°00'0 0.0
2018-Feb-14 06:00N 05°37' W 000°00'0 0.1
2018-Feb-14 05:30N 05°37' W 000°00'510.1
2018-Feb-14 05:00N 05°37' E 000°05'5 9.1
2018-Feb-14 04:30N 05°40' E 000°09'1 2.2
2018-Feb-14 04:00N 05°40' E 000°10'1 1.6
2018-Feb-14 03:30N 05°40' E 000°09'1 2.1
2018-Feb-14 03:00N 05°39' E 000°08'2 3.0
2018-Feb-14 02:29N 05°38' E 000°07'612.3
2018-Feb-14 02:00N 05°37' E 000°01'1 2.8
2018-Feb-14 01:30N 05°37' W 000°00'0 0.0
2018-Feb-14 01:00N 05°37' W 000°00'0 0.0
2018-Feb-14 00:30N 05°37' W 000°00'0 0.0
2018-Feb-14 00:00N 05°37' W 000°00'0 0.0
2018-Feb-13 23:30N 05°37' W 000°00'0 0.8
2018-Feb-13 23:00N 05°37' W 000°00'510.6
2018-Feb-13 22:30N 05°37' E 000°05'3 6.6
2018-Feb-13 22:00N 05°39' E 000°08'1 1.9
2018-Feb-13 21:30N 05°39' E 000°09'1 1.2
2018-Feb-13 21:00N 05°40' E 000°09'1 2.0
2018-Feb-13 20:30N 05°39' E 000°09'1 1.6
2018-Feb-13 20:00N 05°39' E 000°08'611.9
2018-Feb-13 19:30N 05°37' E 000°02'3 5.4
2018-Feb-13 19:00N 05°37' W 000°00'0 0.0
2018-Feb-13 18:30N 05°37' W 000°00'0 0.0
2018-Feb-13 18:00N 05°37' W 000°00'0 0.0
2018-Feb-13 17:30N 05°37' W 000°00'0 0.0
2018-Feb-13 17:00N 05°37' W 000°00'0 0.0
2018-Feb-13 16:30N 05°37' W 000°00'0 0.0
2018-Feb-13 16:00N 05°37' W 000°00'0 0.0
2018-Feb-13 15:30N 05°37' W 000°00'0 0.0
2018-Feb-13 14:59N 05°37' W 000°00'0 0.0
2018-Feb-13 14:29N 05°37' W 000°00'0 0.0
2018-Feb-13 14:00N 05°37' W 000°00'0 0.0
2018-Feb-13 13:30N 05°37' W 000°00'0 0.0
2018-Feb-13 13:00N 05°37' W 000°00'0 0.0
2018-Feb-13 12:30N 05°37' W 000°00'0 0.0
2018-Feb-13 12:00N 05°37' W 000°00'0 0.0
2018-Feb-13 11:30N 05°37' W 000°00'0 0.0
2018-Feb-13 11:00N 05°37' W 000°00'3 5.2
2018-Feb-13 10:30N 05°37' E 000°02'510.8
2018-Feb-13 10:00N 05°39' E 000°07'2 3.0
2018-Feb-13 09:30N 05°39' E 000°09'0 0.3
2018-Feb-13 08:59N 05°39' E 000°09'0 0.8
2018-Feb-13 08:30N 05°40' E 000°09'1 1.6
2018-Feb-13 07:59N 05°39' E 000°08'1 1.2
2018-Feb-13 07:29N 05°39' E 000°08'611.4
2018-Feb-13 07:00N 05°37' E 000°02'3 5.4
2018-Feb-13 06:30N 05°37' W 000°00'0 0.0
2018-Feb-13 06:00N 05°37' W 000°00'0 0.0
2018-Feb-13 05:30N 05°37' W 000°00'0 0.0
2018-Feb-13 05:00N 05°37' W 000°00'0 0.0
2018-Feb-13 04:30N 05°37' W 000°00'0 0.1
2018-Feb-13 04:00N 05°37' W 000°00'5 9.2
2018-Feb-13 03:30N 05°37' E 000°04'4 8.4
2018-Feb-13 03:00N 05°39' E 000°08'1 2.1
2018-Feb-13 02:30N 05°39' E 000°09'0 0.4
2018-Feb-13 02:00N 05°40' E 000°09'1 2.2
2018-Feb-13 01:30N 05°39' E 000°08'2 3.0
2018-Feb-13 01:00N 05°38' E 000°07'613.3
2018-Feb-13 00:30N 05°37' E 000°01'1 1.9
2018-Feb-13 00:00N 05°37' W 000°00'0 0.0
2018-Feb-12 23:30N 05°37' W 000°00'0 0.0
2018-Feb-12 23:00N 05°37' W 000°00'0 0.0
2018-Feb-12 22:30N 05°37' W 000°00'0 0.0
2018-Feb-12 22:00N 05°37' W 000°00'0 0.0
2018-Feb-12 21:30N 05°37' W 000°00'0 0.0
2018-Feb-12 21:00N 05°37' W 000°00'0 0.0
2018-Feb-12 20:30N 05°37' W 000°00'4 7.2
2018-Feb-12 20:00N 05°37' E 000°03'4 8.9
2018-Feb-12 19:30N 05°39' E 000°07'1 2.8
2018-Feb-12 19:00N 05°39' E 000°09'1 1.8
2018-Feb-12 18:30N 05°40' E 000°10'1 1.1
2018-Feb-12 18:00N 05°40' E 000°10'1 1.3
2018-Feb-12 17:30N 05°40' E 000°09'1 1.9
2018-Feb-12 16:57N 05°39' E 000°08'1 1.4
2018-Feb-12 16:30N 05°39' E 000°08'3 5.2
2018-Feb-12 16:00N 05°38' E 000°06'5 9.2
2018-Feb-12 15:30N 05°37' E 000°01'1 2.9
2018-Feb-12 15:00N 05°37' W 000°00'0 0.0
2018-Feb-12 14:30N 05°37' W 000°00'0 0.0
2018-Feb-12 14:00N 05°37' W 000°00'0 0.0
2018-Feb-12 13:30N 05°37' W 000°00'0 0.0
2018-Feb-12 13:00N 05°37' W 000°00'0 0.0
2018-Feb-12 12:30N 05°37' W 000°00'3 6.8
2018-Feb-12 12:00N 05°37' E 000°03'510.0
2018-Feb-12 11:29N 05°39' E 000°08'1 2.1
2018-Feb-12 11:00N 05°39' E 000°09'1 2.0
2018-Feb-12 10:31N 05°40' E 000°10'1 1.9
2018-Feb-12 10:00N 05°39' E 000°09'1 1.7
2018-Feb-12 09:30N 05°39' E 000°08'3 6.9
2018-Feb-12 09:00N 05°37' E 000°05'511.0
2018-Feb-12 08:30N 05°37' W 000°00'0 0.1
2018-Feb-12 08:00N 05°37' W 000°00'0 0.0
2018-Feb-12 07:29N 05°37' W 000°00'0 0.0
2018-Feb-12 07:00N 05°37' W 000°00'0 0.0
2018-Feb-12 06:30N 05°37' W 000°00'0 0.0
2018-Feb-12 06:00N 05°37' W 000°00'0 0.0
2018-Feb-12 05:30N 05°37' W 000°00'4 7.0
2018-Feb-12 04:59N 05°37' E 000°03'5 9.5
2018-Feb-12 04:30N 05°39' E 000°07'1 2.0
2018-Feb-12 04:00N 05°39' E 000°08'1 2.1
2018-Feb-12 03:31N 05°40' E 000°09'1 1.7
2018-Feb-12 03:00N 05°39' E 000°09'1 2.0
2018-Feb-12 02:28N 05°39' E 000°08'4 7.8
2018-Feb-12 02:00N 05°37' E 000°05'5 9.9
2018-Feb-12 01:31N 05°37' W 000°00'0 0.0
2018-Feb-12 01:00N 05°37' W 000°00'0 0.0
2018-Feb-12 00:31N 05°37' W 000°00'0 0.0
2018-Feb-12 00:01N 05°37' W 000°00'0 0.0
2018-Feb-11 23:31N 05°37' W 000°00'0 0.3
2018-Feb-11 23:01N 05°37' W 000°00'510.1
2018-Feb-11 22:31N 05°37' E 000°05'4 7.1
2018-Feb-11 22:00N 05°39' E 000°08'1 1.8
2018-Feb-11 21:31N 05°39' E 000°09'1 1.1
2018-Feb-11 21:01N 05°40' E 000°09'1 2.0
2018-Feb-11 20:31N 05°39' E 000°08'2 4.0
2018-Feb-11 20:01N 05°38' E 000°06'612.9
2018-Feb-11 19:31N 05°37' E 000°00'1 1.1
2018-Feb-11 19:00N 05°37' W 000°00'0 0.0
2018-Feb-11 18:31N 05°37' W 000°00'0 0.0
2018-Feb-11 18:01N 05°37' W 000°00'0 0.0
2018-Feb-11 17:31N 05°37' W 000°00'0 0.6
2018-Feb-11 17:00N 05°37' W 000°00'510.6
2018-Feb-11 16:30N 05°37' E 000°05'4 7.5
2018-Feb-11 16:01N 05°39' E 000°08'1 2.1
2018-Feb-11 15:30N 05°40' E 000°09'1 2.0
2018-Feb-11 14:59N 05°39' E 000°08'1 2.1
2018-Feb-11 14:30N 05°39' E 000°07'4 8.0
2018-Feb-11 14:00N 05°38' E 000°04'4 8.4
2018-Feb-11 13:31N 05°37' W 000°00'0 0.0
2018-Feb-11 13:00N 05°37' W 000°00'0 0.0
2018-Feb-11 12:31N 05°37' W 000°00'0 0.0
2018-Feb-11 12:01N 05°37' W 000°00'0 0.0
2018-Feb-11 11:31N 05°37' W 000°00'0 0.0
2018-Feb-11 11:01N 05°37' W 000°00'3 5.3
2018-Feb-11 10:31N 05°37' E 000°02'510.6
2018-Feb-11 10:01N 05°39' E 000°07'1 2.1
2018-Feb-11 09:28N 05°39' E 000°08'1 1.6
2018-Feb-11 09:01N 05°40' E 000°09'0 0.5
2018-Feb-11 08:30N 05°39' E 000°09'1 1.9
2018-Feb-11 08:01N 05°39' E 000°08'4 6.7
2018-Feb-11 07:29N 05°37' E 000°05'510.4
2018-Feb-11 06:59N 05°37' W 000°00'0 0.1
2018-Feb-11 06:29N 05°37' W 000°00'0 0.0
2018-Feb-11 05:59N 05°37' W 000°00'0 0.0
2018-Feb-11 05:29N 05°37' W 000°00'0 0.0
2018-Feb-11 04:59N 05°37' W 000°00'0 0.0
2018-Feb-11 04:29N 05°37' W 000°00'0 0.0
2018-Feb-11 03:59N 05°37' W 000°00'0 0.0
2018-Feb-11 03:29N 05°37' W 000°00'0 0.0
2018-Feb-11 02:59N 05°37' W 000°00'0 0.0
2018-Feb-11 02:29N 05°37' W 000°00'0 0.0
2018-Feb-11 01:56N 05°37' W 000°00'0 0.0
2018-Feb-11 01:29N 05°37' W 000°00'685414489.0
2018-Feb-11 01:01N 21°21' E 116°21'6854254379.3
2018-Feb-11 00:59N 05°37' W 000°00'6855573866.3
2018-Feb-11 00:59N 21°21' E 116°21'685514044.5
2018-Feb-11 00:29N 05°37' W 000°00'68598231322.4
2018-Feb-11 00:29N 21°21' E 116°26'5 9.8
2018-Feb-11 00:01N 21°21' E 116°32'6864374416.2
2018-Feb-10 23:59N 05°37' W 000°00'686914261.9
2018-Feb-10 23:31N 21°21' E 116°37'6869374699.6
2018-Feb-10 23:29N 05°37' W 000°00'687114101.4
2018-Feb-10 23:00N 21°21' E 116°38'6871537693.4
2018-Feb-10 22:59N 05°37' W 000°00'687014109.2
2018-Feb-10 22:30N 21°21' E 116°38'6870515280.7
2018-Feb-10 22:29N 05°37' W 000°00'687014198.3
2018-Feb-10 22:00N 21°21' E 116°38'6870433921.1
2018-Feb-10 21:59N 05°37' W 000°00'687114264.1
2018-Feb-10 21:31N 21°21' E 116°38'6871369162.9
2018-Feb-10 21:29N 05°37' W 000°00'687114021.8
2018-Feb-10 21:00N 21°21' E 116°38'6871706697.2
2018-Feb-10 20:59N 05°37' W 000°00'687114182.8
2018-Feb-10 20:30N 21°21' E 116°38'6871433942.6
2018-Feb-10 20:29N 05°37' W 000°00'687114198.8
2018-Feb-10 20:00N 21°21' E 116°38'6871426454.4
2018-Feb-10 19:59N 05°37' W 000°00'687014272.0
2018-Feb-10 19:31N 21°20' E 116°38'6870369155.1
2018-Feb-10 19:29N 05°37' W 000°00'687014271.4
2018-Feb-10 19:01N 21°20' E 116°37'6870369140.4
2018-Feb-10 18:59N 05°37' W 000°00'687014279.4
2018-Feb-10 18:31N 21°20' E 116°37'6870363704.3
2018-Feb-10 18:29N 05°37' W 000°00'0 0.0
2018-Feb-10 17:59N 05°37' W 000°00'6870475598.9
2018-Feb-10 17:59N 21°20' E 116°37'1 1.6
2018-Feb-10 17:30N 21°20' E 116°38'68701374058.3
2018-Feb-10 17:29N 05°37' W 000°00'687114198.8
2018-Feb-10 17:00N 21°21' E 116°38'6871426455.0
2018-Feb-10 16:59N 05°37' W 000°00'687014280.0
2018-Feb-10 16:31N 21°21' E 116°38'6870363719.5
2018-Feb-10 16:29N 05°37' W 000°00'0 0.0
2018-Feb-10 15:59N 05°37' W 000°00'687036692.9
2018-Feb-10 15:48N 21°21' E 116°37'687021944.1
2018-Feb-10 15:29N 05°37' W 000°00'686925105.8
2018-Feb-10 15:13N 21°21' E 116°37'686930342.6
2018-Feb-10 14:59N 05°37' W 000°00'6871116128.5
2018-Feb-10 14:56N 21°22' E 116°38'687115586.3
2018-Feb-10 14:29N 05°37' W 000°00'6871184601.7
2018-Feb-10 14:27N 21°22' E 116°39'687114847.9
2018-Feb-10 13:59N 05°37' W 000°00'0 0.0
2018-Feb-10 13:29N 05°37' W 000°00'0 0.0
2018-Feb-10 12:59N 05°37' W 000°00'0 0.0
2018-Feb-10 12:29N 05°37' W 000°00'0 0.0
2018-Feb-10 11:59N 05°37' W 000°00'0 0.0
2018-Feb-10 11:29N 05°37' W 000°00'0 0.0
2018-Feb-10 10:59N 05°37' W 000°00'0 0.0
2018-Feb-10 10:29N 05°37' W 000°00'0 0.0
2018-Feb-10 09:59N 05°37' W 000°00'0 0.0
2018-Feb-10 09:29N 05°37' W 000°00'0 0.0
2018-Feb-10 08:59N 05°37' W 000°00'0 0.0
2018-Feb-10 08:30N 05°37' W 000°00'0 0.0
2018-Feb-10 08:00N 05°37' W 000°00'0 0.0
2018-Feb-10 07:30N 05°37' W 000°00'0 0.0
2018-Feb-10 07:00N 05°37' W 000°00'0 0.0
2018-Feb-10 06:30N 05°37' W 000°00'0 0.0
2018-Feb-10 06:00N 05°37' W 000°00'0 0.3
2018-Feb-10 05:29N 05°37' W 000°00'0 0.0
2018-Feb-10 05:00N 05°37' W 000°00'0 0.0
2018-Feb-10 04:30N 05°37' W 000°00'0 0.1
2018-Feb-10 04:00N 05°37' W 000°00'0 0.0
2018-Feb-10 03:30N 05°37' W 000°00'0 0.0
2018-Feb-10 03:00N 05°37' W 000°00'1 2.0
2018-Feb-10 02:30N 05°37' E 000°01'5 9.5
2018-Feb-10 02:00N 05°37' E 000°05'3 5.7
2018-Feb-10 01:30N 05°39' E 000°08'1 1.6
2018-Feb-10 01:00N 05°39' E 000°08'0 0.4
2018-Feb-10 00:30N 05°39' E 000°08'1 1.9
2018-Feb-10 00:00N 05°39' E 000°07'2 4.5
2018-Feb-09 23:31N 05°38' E 000°06'612.4
2018-Feb-09 23:00N 05°37' W 000°00'0 0.4
2018-Feb-09 22:46N 05°37' W 000°00'7 1.2
2018-Feb-09 17:01N 05°38' E 000°06'612.0
2018-Feb-09 16:30N 05°37' E 000°00'1 0.7
2018-Feb-09 15:30N 05°37' W 000°00'0 0.0
2018-Feb-09 14:30N 05°37' W 000°00'0 0.2
2018-Feb-09 14:00N 05°37' W 000°00'4 7.7
2018-Feb-09 13:30N 05°37' E 000°04'4 3.0
2018-Feb-09 12:00N 05°39' E 000°08'0 0.3
2018-Feb-09 11:00N 05°39' E 000°08'1 1.2
2018-Feb-09 10:30N 05°39' E 000°07'1 2.1
2018-Feb-09 10:00N 05°38' E 000°07'7 2.9
2018-Feb-09 07:30N 05°37' W 000°00'9 4.5
2018-Feb-09 05:30N 05°39' E 000°08'1 0.6
2018-Feb-09 03:30N 05°39' E 000°07'8 2.6
2018-Feb-09 00:30N 05°37' W 000°00'1 2.1
2018-Feb-09 00:00N 05°37' E 000°01'1 0.3
2018-Feb-08 20:00N 05°37' W 000°00'0 0.0
2018-Feb-08 19:30N 05°37' W 000°00'0 0.0
2018-Feb-08 19:00N 05°37' W 000°00'0 0.0
2018-Feb-08 18:30N 05°37' W 000°00'0 0.0
2018-Feb-08 18:00N 05°37' W 000°00'10 3.9
2018-Feb-08 15:30N 05°39' E 000°09'10 6.4
2018-Feb-08 14:00N 05°37' W 000°00'0 0.1
2018-Feb-08 13:30N 05°37' W 000°00'0 0.0
2018-Feb-08 12:30N 05°37' W 000°00'10 4.0
2018-Feb-08 10:00N 05°40' E 000°09'1 1.1
2018-Feb-08 09:30N 05°39' E 000°09'9 4.7
2018-Feb-08 07:30N 05°37' W 000°00'0 0.0
2018-Feb-08 07:00N 05°37' W 000°00'0 0.0
2018-Feb-08 06:30N 05°37' W 000°00'0 0.0
2018-Feb-08 06:00N 05°37' W 000°00'0 0.0
2018-Feb-08 05:30N 05°37' W 000°00'8 8.0
2018-Feb-08 04:30N 05°38' E 000°08'2 2.1
2018-Feb-08 03:30N 05°39' E 000°09'  
Track history (hours):
 
Tides and Currents Weather Stations Pressure Air Temp Water Temp Dewpoint Dewpoint Depression Visibility Wind Speed Wind Dir Waves Ship Positions

Jun Ma 2

Last reported at 2018-Feb-18 03:00 UTC. Time now 2018-Feb-18 03:26 UTC.
Position N 05°37' W 000°00'.

Length 87 m.

MMSI: 412052630.

Date/timePositionNaut miles runAvg speedWind from/ knotsBaromVisibWave heightAir tempDewpointWater temp
2018-Feb-18 03:00N 05°37' W 000°00'0 0.0
2018-Feb-18 02:30N 05°37' W 000°00'0 0.0
2018-Feb-18 02:00N 05°37' W 000°00'0 0.4
2018-Feb-18 01:30N 05°37' W 000°00'510.5
2018-Feb-18 01:00N 05°37' E 000°05'4 8.4
2018-Feb-18 00:30N 05°39' E 000°09'1 1.9
2018-Feb-18 00:00N 05°40' E 000°10'0 0.2
2018-Feb-17 23:30N 05°40' E 000°10'1 2.0
2018-Feb-17 23:00N 05°39' E 000°09'1 2.0
2018-Feb-17 22:30N 05°39' E 000°08'510.6
2018-Feb-17 22:00N 05°37' E 000°03'3 6.4
2018-Feb-17 21:30N 05°37' W 000°00'0 0.0
2018-Feb-17 21:00N 05°37' W 000°00'0 0.0
2018-Feb-17 20:30N 05°37' W 000°00'0 0.0
2018-Feb-17 20:00N 05°37' W 000°00'0 0.0
2018-Feb-17 19:30N 05°37' W 000°00'4 7.4
2018-Feb-17 19:00N 05°37' E 000°03'5 9.5
2018-Feb-17 18:30N 05°39' E 000°08'1 2.0
2018-Feb-17 18:00N 05°39' E 000°09'0 0.2
2018-Feb-17 17:30N 05°39' E 000°09'1 1.6
2018-Feb-17 17:00N 05°39' E 000°08'1 1.6
2018-Feb-17 16:30N 05°39' E 000°09'1 1.2
2018-Feb-17 15:59N 05°39' E 000°08'1 1.8
2018-Feb-17 15:27N 05°39' E 000°07'4 8.7
2018-Feb-17 15:00N 05°37' E 000°04'4 8.5
2018-Feb-17 14:30N 05°37' W 000°00'0 0.0
2018-Feb-17 14:00N 05°37' W 000°00'0 0.0
2018-Feb-17 13:30N 05°37' W 000°00'0 0.0
2018-Feb-17 13:00N 05°37' W 000°00'0 0.0
2018-Feb-17 12:30N 05°37' W 000°00'2 3.6
2018-Feb-17 12:00N 05°37' E 000°01'5 9.7
2018-Feb-17 11:30N 05°38' E 000°06'4 8.4
2018-Feb-17 11:00N 05°40' E 000°10'0 0.8
2018-Feb-17 10:30N 05°39' E 000°10'1 2.1
2018-Feb-17 10:00N 05°39' E 000°09'1 2.0
2018-Feb-17 09:29N 05°39' E 000°08'1 1.4
2018-Feb-17 09:00N 05°39' E 000°07'4 7.6
2018-Feb-17 08:30N 05°37' E 000°04'2 4.4
2018-Feb-17 08:00N 05°37' E 000°01'1 1.8
2018-Feb-17 07:30N 05°37' E 000°01'1 1.5
2018-Feb-17 06:58N 05°37' W 000°00'0 0.0
2018-Feb-17 06:28N 05°37' W 000°00'0 0.0
2018-Feb-17 05:58N 05°37' W 000°00'0 0.0
2018-Feb-17 05:28N 05°37' W 000°00'0 0.0
2018-Feb-17 04:58N 05°37' W 000°00'0 0.0
2018-Feb-17 04:28N 05°37' W 000°00'0 0.0
2018-Feb-17 03:58N 05°37' W 000°00'0 0.0
2018-Feb-17 03:28N 05°37' W 000°00'0 0.0
2018-Feb-17 02:58N 05°37' W 000°00'0 0.0
2018-Feb-17 02:28N 05°37' W 000°00'0 0.0
2018-Feb-17 01:58N 05°37' W 000°00'0 0.0
2018-Feb-17 01:28N 05°37' W 000°00'0 0.0
2018-Feb-17 00:58N 05°37' W 000°00'0 0.0
2018-Feb-17 00:28N 05°37' W 000°00'0 0.0
2018-Feb-16 23:58N 05°37' W 000°00'0 0.0
2018-Feb-16 23:28N 05°37' W 000°00'0 0.0
2018-Feb-16 22:58N 05°37' W 000°00'0 0.0
2018-Feb-16 22:28N 05°37' W 000°00'0 0.0
2018-Feb-16 21:58N 05°37' W 000°00'0 0.0
2018-Feb-16 21:28N 05°37' W 000°00'0 0.0
2018-Feb-16 20:58N 05°37' W 000°00'0 0.0
2018-Feb-16 20:28N 05°37' W 000°00'0 0.0
2018-Feb-16 19:58N 05°37' W 000°00'0 0.0
2018-Feb-16 19:25N 05°37' W 000°00'0 0.0
2018-Feb-16 18:58N 05°37' W 000°00'0 0.3
2018-Feb-16 18:30N 05°37' W 000°00'0 0.0
2018-Feb-16 18:00N 05°37' W 000°00'0 0.0
2018-Feb-16 17:30N 05°37' W 000°00'0 0.0
2018-Feb-16 17:00N 05°37' W 000°00'0 0.2
2018-Feb-16 16:30N 05°37' W 000°00'5 9.8
2018-Feb-16 16:00N 05°37' E 000°05'5 9.5
2018-Feb-16 15:30N 05°39' E 000°09'1 2.2
2018-Feb-16 15:00N 05°40' E 000°10'1 1.7
2018-Feb-16 14:30N 05°39' E 000°09'1 2.4
2018-Feb-16 13:59N 05°39' E 000°08'2 4.5
2018-Feb-16 13:30N 05°38' E 000°06'612.5
2018-Feb-16 13:01N 05°37' E 000°00'1 1.2
2018-Feb-16 12:31N 05°37' W 000°00'0 0.0
2018-Feb-16 12:00N 05°37' W 000°00'0 0.0
2018-Feb-16 11:30N 05°37' W 000°00'0 0.0
2018-Feb-16 11:00N 05°37' W 000°00'0 0.0
2018-Feb-16 10:30N 05°37' W 000°00'0 0.0
2018-Feb-16 10:00N 05°37' W 000°00'0 0.0
2018-Feb-16 09:30N 05°37' W 000°00'0 0.0
2018-Feb-16 09:00N 05°37' W 000°00'0 0.0
2018-Feb-16 08:30N 05°37' W 000°00'0 0.0
2018-Feb-16 08:00N 05°37' W 000°00'0 0.0
2018-Feb-16 07:30N 05°37' W 000°00'0 0.0
2018-Feb-16 07:00N 05°37' W 000°00'0 0.0
2018-Feb-16 06:30N 05°37' W 000°00'0 0.0
2018-Feb-16 06:00N 05°37' W 000°00'0 0.0
2018-Feb-16 05:30N 05°37' W 000°00'0 0.0
2018-Feb-16 04:54N 05°37' W 000°00'0 0.0
2018-Feb-16 04:30N 05°37' W 000°00'0 0.0
2018-Feb-16 04:00N 05°37' W 000°00'0 0.0
2018-Feb-16 03:30N 05°37' W 000°00'0 0.0
2018-Feb-16 03:00N 05°37' W 000°00'0 0.0
2018-Feb-16 02:30N 05°37' W 000°00'0 0.0
2018-Feb-16 02:00N 05°37' W 000°00'0 0.0
2018-Feb-16 01:30N 05°37' W 000°00'0 0.0
2018-Feb-16 01:00N 05°37' W 000°00'0 0.0
2018-Feb-16 00:30N 05°37' W 000°00'0 0.0
2018-Feb-16 00:00N 05°37' W 000°00'0 0.0
2018-Feb-15 23:30N 05°37' W 000°00'0 0.0
2018-Feb-15 23:00N 05°37' W 000°00'0 0.0
2018-Feb-15 22:30N 05°37' W 000°00'0 0.0
2018-Feb-15 22:00N 05°37' W 000°00'0 0.0
2018-Feb-15 21:30N 05°37' W 000°00'0 0.0
2018-Feb-15 21:00N 05°37' W 000°00'0 0.0
2018-Feb-15 20:30N 05°37' W 000°00'0 0.0
2018-Feb-15 20:00N 05°37' W 000°00'0 0.0
2018-Feb-15 19:30N 05°37' W 000°00'0 0.0
2018-Feb-15 19:00N 05°37' W 000°00'0 0.0
2018-Feb-15 18:30N 05°37' W 000°00'0 0.0
2018-Feb-15 18:00N 05°37' W 000°00'0 0.0
2018-Feb-15 17:30N 05°37' W 000°00'0 0.0
2018-Feb-15 17:00N 05°37' W 000°00'0 0.0
2018-Feb-15 16:30N 05°37' W 000°00'0 0.0
2018-Feb-15 16:00N 05°37' W 000°00'0 0.0
2018-Feb-15 15:30N 05°37' W 000°00'0 0.0
2018-Feb-15 15:00N 05°37' W 000°00'0 0.0
2018-Feb-15 14:30N 05°37' W 000°00'0 0.0
2018-Feb-15 14:00N 05°37' W 000°00'0 0.0
2018-Feb-15 13:30N 05°37' W 000°00'0 0.0
2018-Feb-15 13:00N 05°37' W 000°00'0 0.0
2018-Feb-15 12:30N 05°37' W 000°00'0 0.0
2018-Feb-15 12:00N 05°37' W 000°00'0 0.0
2018-Feb-15 11:30N 05°37' W 000°00'0 0.0
2018-Feb-15 11:00N 05°37' W 000°00'0 0.0
2018-Feb-15 10:30N 05°37' W 000°00'0 0.0
2018-Feb-15 10:00N 05°37' W 000°00'0 0.2
2018-Feb-15 09:30N 05°37' W 000°00'0 0.0
2018-Feb-15 09:01N 05°37' W 000°00'0 0.0
2018-Feb-15 08:29N 05°37' W 000°00'0 0.0
2018-Feb-15 08:00N 05°37' W 000°00'0 0.0
2018-Feb-15 07:31N 05°37' W 000°00'0 0.1
2018-Feb-15 07:01N 05°37' W 000°00'4 8.4
2018-Feb-15 06:31N 05°37' E 000°04'510.2
2018-Feb-15 06:00N 05°39' E 000°09'1 2.1
2018-Feb-15 05:30N 05°39' E 000°10'0 0.6
2018-Feb-15 05:00N 05°40' E 000°09'1 1.7
2018-Feb-15 04:29N 05°39' E 000°09'1 1.7
2018-Feb-15 04:00N 05°39' E 000°08'611.8
2018-Feb-15 03:30N 05°37' E 000°02'3 5.4
2018-Feb-15 03:01N 05°37' W 000°00'0 0.0
2018-Feb-15 02:30N 05°37' W 000°00'0 0.0
2018-Feb-15 02:00N 05°37' W 000°00'0 0.0
2018-Feb-15 01:31N 05°37' W 000°00'0 0.0
2018-Feb-15 01:01N 05°37' W 000°00'0 0.1
2018-Feb-15 00:30N 05°37' W 000°00'5 9.3
2018-Feb-15 00:00N 05°37' E 000°04'4 7.7
2018-Feb-14 23:30N 05°39' E 000°08'1 1.8
2018-Feb-14 23:01N 05°39' E 000°09'1 1.7
2018-Feb-14 22:30N 05°40' E 000°09'1 1.9
2018-Feb-14 22:00N 05°39' E 000°09'1 1.6
2018-Feb-14 21:31N 05°39' E 000°08'612.4
2018-Feb-14 21:01N 05°37' E 000°02'2 4.6
2018-Feb-14 20:31N 05°37' W 000°00'0 0.0
2018-Feb-14 20:01N 05°37' W 000°00'0 0.0
2018-Feb-14 19:30N 05°37' W 000°00'0 0.0
2018-Feb-14 19:00N 05°37' W 000°00'2 4.1
2018-Feb-14 18:31N 05°37' E 000°02'611.4
2018-Feb-14 18:00N 05°38' E 000°07'3 5.2
2018-Feb-14 17:31N 05°39' E 000°10'0 0.3
2018-Feb-14 17:01N 05°39' E 000°10'1 1.9
2018-Feb-14 16:30N 05°39' E 000°09'1 1.9
2018-Feb-14 15:59N 05°39' E 000°08'4 7.9
2018-Feb-14 15:30N 05°37' E 000°04'5 9.5
2018-Feb-14 15:00N 05°37' W 000°00'0 0.0
2018-Feb-14 14:30N 05°37' W 000°00'0 0.0
2018-Feb-14 14:00N 05°37' W 000°00'0 0.0
2018-Feb-14 13:30N 05°37' W 000°00'0 0.0
2018-Feb-14 13:00N 05°37' W 000°00'0 0.0
2018-Feb-14 12:30N 05°37' W 000°00'3 5.5
2018-Feb-14 12:00N 05°37' E 000°02'611.8
2018-Feb-14 11:30N 05°39' E 000°08'1 2.7
2018-Feb-14 11:00N 05°39' E 000°09'1 1.7
2018-Feb-14 10:30N 05°40' E 000°10'1 2.1
2018-Feb-14 09:59N 05°39' E 000°09'1 2.0
2018-Feb-14 09:30N 05°39' E 000°08'4 8.7
2018-Feb-14 09:00N 05°37' E 000°04'4 8.9
2018-Feb-14 08:30N 05°37' W 000°00'0 0.0
2018-Feb-14 08:00N 05°37' W 000°00'0 0.0
2018-Feb-14 07:30N 05°37' W 000°00'0 0.0
2018-Feb-14 07:00N 05°37' W 000°00'0 0.0
2018-Feb-14 06:30N 05°37' W 000°00'0 0.0
2018-Feb-14 06:00N 05°37' W 000°00'0 0.1
2018-Feb-14 05:30N 05°37' W 000°00'510.1
2018-Feb-14 05:00N 05°37' E 000°05'5 9.1
2018-Feb-14 04:30N 05°40' E 000°09'1 2.2
2018-Feb-14 04:00N 05°40' E 000°10'1 1.6
2018-Feb-14 03:30N 05°40' E 000°09'1 2.1
2018-Feb-14 03:00N 05°39' E 000°08'2 3.0
2018-Feb-14 02:29N 05°38' E 000°07'612.3
2018-Feb-14 02:00N 05°37' E 000°01'1 2.8
2018-Feb-14 01:30N 05°37' W 000°00'0 0.0
2018-Feb-14 01:00N 05°37' W 000°00'0 0.0
2018-Feb-14 00:30N 05°37' W 000°00'0 0.0
2018-Feb-14 00:00N 05°37' W 000°00'0 0.0
2018-Feb-13 23:30N 05°37' W 000°00'0 0.8
2018-Feb-13 23:00N 05°37' W 000°00'510.6
2018-Feb-13 22:30N 05°37' E 000°05'3 6.6
2018-Feb-13 22:00N 05°39' E 000°08'1 1.9
2018-Feb-13 21:30N 05°39' E 000°09'1 1.2
2018-Feb-13 21:00N 05°40' E 000°09'1 2.0
2018-Feb-13 20:30N 05°39' E 000°09'1 1.6
2018-Feb-13 20:00N 05°39' E 000°08'611.9
2018-Feb-13 19:30N 05°37' E 000°02'3 5.4
2018-Feb-13 19:00N 05°37' W 000°00'0 0.0
2018-Feb-13 18:30N 05°37' W 000°00'0 0.0
2018-Feb-13 18:00N 05°37' W 000°00'0 0.0
2018-Feb-13 17:30N 05°37' W 000°00'0 0.0
2018-Feb-13 17:00N 05°37' W 000°00'0 0.0
2018-Feb-13 16:30N 05°37' W 000°00'0 0.0
2018-Feb-13 16:00N 05°37' W 000°00'0 0.0
2018-Feb-13 15:30N 05°37' W 000°00'0 0.0
2018-Feb-13 14:59N 05°37' W 000°00'0 0.0
2018-Feb-13 14:29N 05°37' W 000°00'0 0.0
2018-Feb-13 14:00N 05°37' W 000°00'0 0.0
2018-Feb-13 13:30N 05°37' W 000°00'0 0.0
2018-Feb-13 13:00N 05°37' W 000°00'0 0.0
2018-Feb-13 12:30N 05°37' W 000°00'0 0.0
2018-Feb-13 12:00N 05°37' W 000°00'0 0.0
2018-Feb-13 11:30N 05°37' W 000°00'0 0.0
2018-Feb-13 11:00N 05°37' W 000°00'3 5.2
2018-Feb-13 10:30N 05°37' E 000°02'510.8
2018-Feb-13 10:00N 05°39' E 000°07'2 3.0
2018-Feb-13 09:30N 05°39' E 000°09'0 0.3
2018-Feb-13 08:59N 05°39' E 000°09'0 0.8
2018-Feb-13 08:30N 05°40' E 000°09'1 1.6
2018-Feb-13 07:59N 05°39' E 000°08'1 1.2
2018-Feb-13 07:29N 05°39' E 000°08'611.4
2018-Feb-13 07:00N 05°37' E 000°02'3 5.4
2018-Feb-13 06:30N 05°37' W 000°00'0 0.0
2018-Feb-13 06:00N 05°37' W 000°00'0 0.0
2018-Feb-13 05:30N 05°37' W 000°00'0 0.0
2018-Feb-13 05:00N 05°37' W 000°00'0 0.0
2018-Feb-13 04:30N 05°37' W 000°00'0 0.1
2018-Feb-13 04:00N 05°37' W 000°00'5 9.2
2018-Feb-13 03:30N 05°37' E 000°04'4 8.4
2018-Feb-13 03:00N 05°39' E 000°08'1 2.1
2018-Feb-13 02:30N 05°39' E 000°09'0 0.4
2018-Feb-13 02:00N 05°40' E 000°09'1 2.2
2018-Feb-13 01:30N 05°39' E 000°08'2 3.0
2018-Feb-13 01:00N 05°38' E 000°07'613.3
2018-Feb-13 00:30N 05°37' E 000°01'1 1.9
2018-Feb-13 00:00N 05°37' W 000°00'0 0.0
2018-Feb-12 23:30N 05°37' W 000°00'0 0.0
2018-Feb-12 23:00N 05°37' W 000°00'0 0.0
2018-Feb-12 22:30N 05°37' W 000°00'0 0.0
2018-Feb-12 22:00N 05°37' W 000°00'0 0.0
2018-Feb-12 21:30N 05°37' W 000°00'0 0.0
2018-Feb-12 21:00N 05°37' W 000°00'0 0.0
2018-Feb-12 20:30N 05°37' W 000°00'4 7.2
2018-Feb-12 20:00N 05°37' E 000°03'4 8.9
2018-Feb-12 19:30N 05°39' E 000°07'1 2.8
2018-Feb-12 19:00N 05°39' E 000°09'1 1.8
2018-Feb-12 18:30N 05°40' E 000°10'1 1.1
2018-Feb-12 18:00N 05°40' E 000°10'1 1.3
2018-Feb-12 17:30N 05°40' E 000°09'1 1.9
2018-Feb-12 16:57N 05°39' E 000°08'1 1.4
2018-Feb-12 16:30N 05°39' E 000°08'3 5.2
2018-Feb-12 16:00N 05°38' E 000°06'5 9.2
2018-Feb-12 15:30N 05°37' E 000°01'1 2.9
2018-Feb-12 15:00N 05°37' W 000°00'0 0.0
2018-Feb-12 14:30N 05°37' W 000°00'0 0.0
2018-Feb-12 14:00N 05°37' W 000°00'0 0.0
2018-Feb-12 13:30N 05°37' W 000°00'0 0.0
2018-Feb-12 13:00N 05°37' W 000°00'0 0.0
2018-Feb-12 12:30N 05°37' W 000°00'3 6.8
2018-Feb-12 12:00N 05°37' E 000°03'510.0
2018-Feb-12 11:29N 05°39' E 000°08'1 2.1
2018-Feb-12 11:00N 05°39' E 000°09'1 2.0
2018-Feb-12 10:31N 05°40' E 000°10'1 1.9
2018-Feb-12 10:00N 05°39' E 000°09'1 1.7
2018-Feb-12 09:30N 05°39' E 000°08'3 6.9
2018-Feb-12 09:00N 05°37' E 000°05'511.0
2018-Feb-12 08:30N 05°37' W 000°00'0 0.1
2018-Feb-12 08:00N 05°37' W 000°00'0 0.0
2018-Feb-12 07:29N 05°37' W 000°00'0 0.0
2018-Feb-12 07:00N 05°37' W 000°00'0 0.0
2018-Feb-12 06:30N 05°37' W 000°00'0 0.0
2018-Feb-12 06:00N 05°37' W 000°00'0 0.0
2018-Feb-12 05:30N 05°37' W 000°00'4 7.0
2018-Feb-12 04:59N 05°37' E 000°03'5 9.5
2018-Feb-12 04:30N 05°39' E 000°07'1 2.0
2018-Feb-12 04:00N 05°39' E 000°08'1 2.1
2018-Feb-12 03:31N 05°40' E 000°09'1 1.7
2018-Feb-12 03:00N 05°39' E 000°09'1 2.0
2018-Feb-12 02:28N 05°39' E 000°08'4 7.8
2018-Feb-12 02:00N 05°37' E 000°05'5 9.9
2018-Feb-12 01:31N 05°37' W 000°00'0 0.0
2018-Feb-12 01:00N 05°37' W 000°00'0 0.0
2018-Feb-12 00:31N 05°37' W 000°00'0 0.0
2018-Feb-12 00:01N 05°37' W 000°00'0 0.0
2018-Feb-11 23:31N 05°37' W 000°00'0 0.3
2018-Feb-11 23:01N 05°37' W 000°00'510.1
2018-Feb-11 22:31N 05°37' E 000°05'4 7.1
2018-Feb-11 22:00N 05°39' E 000°08'1 1.8
2018-Feb-11 21:31N 05°39' E 000°09'1 1.1
2018-Feb-11 21:01N 05°40' E 000°09'1 2.0
2018-Feb-11 20:31N 05°39' E 000°08'2 4.0
2018-Feb-11 20:01N 05°38' E 000°06'612.9
2018-Feb-11 19:31N 05°37' E 000°00'1 1.1
2018-Feb-11 19:00N 05°37' W 000°00'0 0.0
2018-Feb-11 18:31N 05°37' W 000°00'0 0.0
2018-Feb-11 18:01N 05°37' W 000°00'0 0.0
2018-Feb-11 17:31N 05°37' W 000°00'0 0.6
2018-Feb-11 17:00N 05°37' W 000°00'510.6
2018-Feb-11 16:30N 05°37' E 000°05'4 7.5
2018-Feb-11 16:01N 05°39' E 000°08'1 2.1
2018-Feb-11 15:30N 05°40' E 000°09'1 2.0
2018-Feb-11 14:59N 05°39' E 000°08'1 2.1
2018-Feb-11 14:30N 05°39' E 000°07'4 8.0
2018-Feb-11 14:00N 05°38' E 000°04'4 8.4
2018-Feb-11 13:31N 05°37' W 000°00'0 0.0
2018-Feb-11 13:00N 05°37' W 000°00'0 0.0
2018-Feb-11 12:31N 05°37' W 000°00'0 0.0
2018-Feb-11 12:01N 05°37' W 000°00'0 0.0
2018-Feb-11 11:31N 05°37' W 000°00'0 0.0
2018-Feb-11 11:01N 05°37' W 000°00'3 5.3
2018-Feb-11 10:31N 05°37' E 000°02'510.6
2018-Feb-11 10:01N 05°39' E 000°07'1 2.1
2018-Feb-11 09:28N 05°39' E 000°08'1 1.6
2018-Feb-11 09:01N 05°40' E 000°09'0 0.5
2018-Feb-11 08:30N 05°39' E 000°09'1 1.9
2018-Feb-11 08:01N 05°39' E 000°08'4 6.7
2018-Feb-11 07:29N 05°37' E 000°05'510.4
2018-Feb-11 06:59N 05°37' W 000°00'0 0.1
2018-Feb-11 06:29N 05°37' W 000°00'0 0.0
2018-Feb-11 05:59N 05°37' W 000°00'0 0.0
2018-Feb-11 05:29N 05°37' W 000°00'0 0.0
2018-Feb-11 04:59N 05°37' W 000°00'0 0.0
2018-Feb-11 04:29N 05°37' W 000°00'0 0.0
2018-Feb-11 03:59N 05°37' W 000°00'0 0.0
2018-Feb-11 03:29N 05°37' W 000°00'0 0.0
2018-Feb-11 02:59N 05°37' W 000°00'0 0.0
2018-Feb-11 02:29N 05°37' W 000°00'0 0.0
2018-Feb-11 01:56N 05°37' W 000°00'0 0.0
2018-Feb-11 01:29N 05°37' W 000°00'685414489.0
2018-Feb-11 01:01N 21°21' E 116°21'6854254379.3
2018-Feb-11 00:59N 05°37' W 000°00'6855573866.3
2018-Feb-11 00:59N 21°21' E 116°21'685514044.5
2018-Feb-11 00:29N 05°37' W 000°00'68598231322.4
2018-Feb-11 00:29N 21°21' E 116°26'5 9.8
2018-Feb-11 00:01N 21°21' E 116°32'6864374416.2
2018-Feb-10 23:59N 05°37' W 000°00'686914261.9
2018-Feb-10 23:31N 21°21' E 116°37'6869374699.6
2018-Feb-10 23:29N 05°37' W 000°00'687114101.4
2018-Feb-10 23:00N 21°21' E 116°38'6871537693.4
2018-Feb-10 22:59N 05°37' W 000°00'687014109.2
2018-Feb-10 22:30N 21°21' E 116°38'6870515280.7
2018-Feb-10 22:29N 05°37' W 000°00'687014198.3
2018-Feb-10 22:00N 21°21' E 116°38'6870433921.1
2018-Feb-10 21:59N 05°37' W 000°00'687114264.1
2018-Feb-10 21:31N 21°21' E 116°38'6871369162.9
2018-Feb-10 21:29N 05°37' W 000°00'687114021.8
2018-Feb-10 21:00N 21°21' E 116°38'6871706697.2
2018-Feb-10 20:59N 05°37' W 000°00'687114182.8
2018-Feb-10 20:30N 21°21' E 116°38'6871433942.6
2018-Feb-10 20:29N 05°37' W 000°00'687114198.8
2018-Feb-10 20:00N 21°21' E 116°38'6871426454.4
2018-Feb-10 19:59N 05°37' W 000°00'687014272.0
2018-Feb-10 19:31N 21°20' E 116°38'6870369155.1
2018-Feb-10 19:29N 05°37' W 000°00'687014271.4
2018-Feb-10 19:01N 21°20' E 116°37'6870369140.4
2018-Feb-10 18:59N 05°37' W 000°00'687014279.4
2018-Feb-10 18:31N 21°20' E 116°37'6870363704.3
2018-Feb-10 18:29N 05°37' W 000°00'0 0.0
2018-Feb-10 17:59N 05°37' W 000°00'6870475598.9
2018-Feb-10 17:59N 21°20' E 116°37'1 1.6
2018-Feb-10 17:30N 21°20' E 116°38'68701374058.3
2018-Feb-10 17:29N 05°37' W 000°00'687114198.8
2018-Feb-10 17:00N 21°21' E 116°38'6871426455.0
2018-Feb-10 16:59N 05°37' W 000°00'687014280.0
2018-Feb-10 16:31N 21°21' E 116°38'6870363719.5
2018-Feb-10 16:29N 05°37' W 000°00'0 0.0
2018-Feb-10 15:59N 05°37' W 000°00'687036692.9
2018-Feb-10 15:48N 21°21' E 116°37'687021944.1
2018-Feb-10 15:29N 05°37' W 000°00'686925105.8
2018-Feb-10 15:13N 21°21' E 116°37'686930342.6
2018-Feb-10 14:59N 05°37' W 000°00'6871116128.5
2018-Feb-10 14:56N 21°22' E 116°38'687115586.3
2018-Feb-10 14:29N 05°37' W 000°00'6871184601.7
2018-Feb-10 14:27N 21°22' E 116°39'687114847.9
2018-Feb-10 13:59N 05°37' W 000°00'0 0.0
2018-Feb-10 13:29N 05°37' W 000°00'0 0.0
2018-Feb-10 12:59N 05°37' W 000°00'0 0.0
2018-Feb-10 12:29N 05°37' W 000°00'0 0.0
2018-Feb-10 11:59N 05°37' W 000°00'0 0.0
2018-Feb-10 11:29N 05°37' W 000°00'0 0.0
2018-Feb-10 10:59N 05°37' W 000°00'0 0.0
2018-Feb-10 10:29N 05°37' W 000°00'0 0.0
2018-Feb-10 09:59N 05°37' W 000°00'0 0.0
2018-Feb-10 09:29N 05°37' W 000°00'0 0.0
2018-Feb-10 08:59N 05°37' W 000°00'0 0.0
2018-Feb-10 08:30N 05°37' W 000°00'0 0.0
2018-Feb-10 08:00N 05°37' W 000°00'0 0.0
2018-Feb-10 07:30N 05°37' W 000°00'0 0.0
2018-Feb-10 07:00N 05°37' W 000°00'0 0.0
2018-Feb-10 06:30N 05°37' W 000°00'0 0.0
2018-Feb-10 06:00N 05°37' W 000°00'0 0.3
2018-Feb-10 05:29N 05°37' W 000°00'0 0.0
2018-Feb-10 05:00N 05°37' W 000°00'0 0.0
2018-Feb-10 04:30N 05°37' W 000°00'0 0.1
2018-Feb-10 04:00N 05°37' W 000°00'0 0.0
2018-Feb-10 03:30N 05°37' W 000°00'0 0.0
2018-Feb-10 03:00N 05°37' W 000°00'1 2.0
2018-Feb-10 02:30N 05°37' E 000°01'5 9.5
2018-Feb-10 02:00N 05°37' E 000°05'3 5.7
2018-Feb-10 01:30N 05°39' E 000°08'1 1.6
2018-Feb-10 01:00N 05°39' E 000°08'0 0.4
2018-Feb-10 00:30N 05°39' E 000°08'1 1.9
2018-Feb-10 00:00N 05°39' E 000°07'2 4.5
2018-Feb-09 23:31N 05°38' E 000°06'612.4
2018-Feb-09 23:00N 05°37' W 000°00'0 0.4
2018-Feb-09 22:46N 05°37' W 000°00'7 1.2
2018-Feb-09 17:01N 05°38' E 000°06'612.0
2018-Feb-09 16:30N 05°37' E 000°00'1 0.7
2018-Feb-09 15:30N 05°37' W 000°00'0 0.0
2018-Feb-09 14:30N 05°37' W 000°00'0 0.2
2018-Feb-09 14:00N 05°37' W 000°00'4 7.7
2018-Feb-09 13:30N 05°37' E 000°04'4 3.0
2018-Feb-09 12:00N 05°39' E 000°08'0 0.3
2018-Feb-09 11:00N 05°39' E 000°08'1 1.2
2018-Feb-09 10:30N 05°39' E 000°07'1 2.1
2018-Feb-09 10:00N 05°38' E 000°07'7 2.9
2018-Feb-09 07:30N 05°37' W 000°00'9 4.5
2018-Feb-09 05:30N 05°39' E 000°08'1 0.6
2018-Feb-09 03:30N 05°39' E 000°07'8 2.6
2018-Feb-09 00:30N 05°37' W 000°00'1 2.1
2018-Feb-09 00:00N 05°37' E 000°01'1 0.3
2018-Feb-08 20:00N 05°37' W 000°00'0 0.0
2018-Feb-08 19:30N 05°37' W 000°00'0 0.0
2018-Feb-08 19:00N 05°37' W 000°00'0 0.0
2018-Feb-08 18:30N 05°37' W 000°00'0 0.0
2018-Feb-08 18:00N 05°37' W 000°00'10 3.9
2018-Feb-08 15:30N 05°39' E 000°09'10 6.4
2018-Feb-08 14:00N 05°37' W 000°00'0 0.1
2018-Feb-08 13:30N 05°37' W 000°00'0 0.0
2018-Feb-08 12:30N 05°37' W 000°00'10 4.0
2018-Feb-08 10:00N 05°40' E 000°09'1 1.1
2018-Feb-08 09:30N 05°39' E 000°09'9 4.7
2018-Feb-08 07:30N 05°37' W 000°00'0 0.0
2018-Feb-08 07:00N 05°37' W 000°00'0 0.0
2018-Feb-08 06:30N 05°37' W 000°00'0 0.0
2018-Feb-08 06:00N 05°37' W 000°00'0 0.0
2018-Feb-08 05:30N 05°37' W 000°00'8 8.0
2018-Feb-08 04:30N 05°38' E 000°08'2 2.1
2018-Feb-08 03:30N 05°39' E 000°09'  

Dump ship's entire track history